Time;durP1;ratioP1;P1;durP2;ratioP2;P2;SDS_P1;SDS_P2;PMS_P1;PMS_P2;Temp;Humidity;BMP_temperature;BMP_pressure;BME280_temperature;BME280_humidity;BME280_pressure;Samples;Min_cycle;Max_cycle;Signal;HPM_P1;HPM_P2
2023/06/11 00:00:26;;;;;;;7.10;3.23;;;16.20;99.90;;;;;;5093589;28;20543;-77
2023/06/11 00:02:54;;;;;;;7.00;4.00;;;16.20;99.90;;;;;;5073709;28;20423;-76
2023/06/11 00:05:21;;;;;;;4.60;3.00;;;16.10;99.90;;;;;;5075439;28;20450;-77
2023/06/11 00:07:48;;;;;;;5.70;3.60;;;16.10;99.90;;;;;;5094398;28;20458;-77
2023/06/11 00:10:16;;;;;;;12.40;4.70;;;16.10;99.90;;;;;;5094030;28;20527;-77
2023/06/11 00:12:41;;;;;;;8.90;2.83;;;16.10;99.90;;;;;;5087439;28;20457;-77
2023/06/11 00:15:08;;;;;;;7.13;3.33;;;16.10;99.90;;;;;;5078702;28;20458;-77
2023/06/11 00:17:33;;;;;;;5.03;3.53;;;16.10;99.90;;;;;;5083175;28;20192;-77
2023/06/11 00:20:09;;;;;;;6.87;3.63;;;16.10;99.90;;;;;;5094617;28;20419;-77
2023/06/11 00:22:35;;;;;;;8.30;3.50;;;16.10;99.90;;;;;;5094284;28;20190;-77
2023/06/11 00:25:01;;;;;;;6.50;3.37;;;16.20;99.90;;;;;;5091193;28;20956;-77
2023/06/11 00:27:26;;;;;;;5.63;3.60;;;16.20;99.90;;;;;;5084856;28;20529;-76
2023/06/11 00:29:53;;;;;;;5.60;3.90;;;16.20;99.90;;;;;;5094695;28;20291;-77
2023/06/11 00:32:19;;;;;;;4.70;3.40;;;16.20;99.90;;;;;;5084913;28;20293;-76
2023/06/11 00:34:45;;;;;;;6.83;3.53;;;16.20;99.90;;;;;;5091761;28;20953;-76
2023/06/11 00:37:11;;;;;;;5.43;3.47;;;16.10;99.90;;;;;;5092804;28;20576;-76
2023/06/11 00:39:37;;;;;;;6.63;3.10;;;16.10;99.90;;;;;;5092891;28;20185;-77
2023/06/11 00:42:03;;;;;;;5.40;3.17;;;16.00;99.90;;;;;;5086322;28;20422;-77
2023/06/11 00:44:29;;;;;;;4.90;2.97;;;16.10;99.90;;;;;;5075448;28;20427;-77
2023/06/11 00:46:57;;;;;;;5.37;3.20;;;16.10;99.90;;;;;;5066295;28;20662;-77
2023/06/11 00:49:23;;;;;;;5.03;3.70;;;16.00;99.90;;;;;;5072284;28;20432;-77
2023/06/11 00:51:49;;;;;;;6.83;3.80;;;16.00;99.90;;;;;;5072524;28;20470;-76
2023/06/11 00:54:18;;;;;;;7.80;3.97;;;15.90;99.90;;;;;;5072570;28;20895;-77
2023/06/11 00:56:44;;;;;;;8.87;4.70;;;15.90;99.90;;;;;;5072708;28;20957;-77
2023/06/11 00:59:13;;;;;;;8.03;3.50;;;15.90;99.90;;;;;;5068620;28;20446;-77
2023/06/11 01:01:45;;;;;;;8.27;3.80;;;15.90;99.90;;;;;;5062735;28;20419;-77
2023/06/11 01:04:20;;;;;;;6.30;4.10;;;15.90;99.90;;;;;;5059255;28;20423;-77
2023/06/11 01:06:49;;;;;;;4.30;3.33;;;15.90;99.90;;;;;;5059765;28;20451;-76
2023/06/11 01:09:20;;;;;;;5.00;3.20;;;15.80;99.90;;;;;;5059226;28;20430;-77
2023/06/11 01:11:49;;;;;;;5.73;4.20;;;15.80;99.90;;;;;;5058437;28;20474;-76
2023/06/11 01:14:16;;;;;;;7.73;4.60;;;15.80;99.90;;;;;;5072367;28;20415;-77
2023/06/11 01:16:57;;;;;;;8.63;3.50;;;15.70;99.90;;;;;;5072420;28;20469;-76
2023/06/11 01:19:32;;;;;;;9.30;3.37;;;15.70;99.90;;;;;;5072639;28;20435;-76
2023/06/11 01:22:04;;;;;;;6.57;3.20;;;15.70;99.90;;;;;;5072146;28;20411;-77
2023/06/11 01:24:41;;;;;;;6.80;3.13;;;15.60;99.90;;;;;;5072018;28;20460;-77
2023/06/11 01:27:31;;;;;;;5.13;3.70;;;15.60;99.90;;;;;;5058635;28;20419;-77
2023/06/11 01:29:58;;;;;;;4.13;2.80;;;15.60;99.90;;;;;;5071866;28;20565;-77
2023/06/11 01:32:27;;;;;;;6.47;3.40;;;15.60;99.90;;;;;;5061893;28;20420;-77
2023/06/11 01:35:02;;;;;;;5.77;2.70;;;15.70;99.90;;;;;;5057661;28;20430;-76
2023/06/11 01:37:29;;;;;;;9.60;4.10;;;15.70;99.90;;;;;;5068349;28;20423;-77
2023/06/11 01:39:55;;;;;;;5.07;3.53;;;15.70;99.90;;;;;;5070371;28;20426;-77
2023/06/11 01:42:21;;;;;;;9.90;4.07;;;15.60;99.90;;;;;;5068242;28;20518;-77
2023/06/11 01:44:47;;;;;;;6.93;4.23;;;15.60;99.90;;;;;;5063340;28;21196;-77
2023/06/11 01:47:12;;;;;;;9.30;4.00;;;15.60;99.90;;;;;;5069265;28;20267;-77
2023/06/11 01:49:38;;;;;;;8.40;3.67;;;15.50;99.90;;;;;;5065455;28;20254;-77
2023/06/11 01:52:04;;;;;;;8.13;3.97;;;15.50;99.90;;;;;;5071280;28;20204;-77
2023/06/11 01:54:30;;;;;;;7.47;4.20;;;15.50;99.90;;;;;;5070953;28;20629;-77
2023/06/11 01:56:56;;;;;;;7.90;4.27;;;15.40;99.90;;;;;;5071492;28;20427;-77
2023/06/11 01:59:21;;;;;;;7.40;4.57;;;15.40;99.90;;;;;;5058213;28;20177;-77
2023/06/11 02:01:52;;;;;;;8.57;4.27;;;15.40;99.90;;;;;;5071455;28;20189;-77
2023/06/11 02:04:22;;;;;;;7.50;4.03;;;15.30;99.90;;;;;;5052056;28;20643;-77
2023/06/11 02:06:48;;;;;;;9.13;4.50;;;15.20;99.90;;;;;;5051674;28;20486;-77
2023/06/11 02:09:14;;;;;;;6.70;4.30;;;15.20;99.90;;;;;;5058231;28;20411;-77
2023/06/11 02:11:40;;;;;;;6.93;3.63;;;15.20;99.90;;;;;;5070638;28;20537;-77
2023/06/11 02:14:05;;;;;;;9.87;4.60;;;15.10;99.90;;;;;;5076341;28;20530;-77
2023/06/11 02:16:31;;;;;;;7.53;4.30;;;15.00;99.90;;;;;;5070393;28;20185;-77
2023/06/11 02:18:57;;;;;;;6.17;3.57;;;15.10;99.90;;;;;;5069994;28;20281;-77
2023/06/11 02:21:22;;;;;;;7.90;4.77;;;15.00;99.90;;;;;;5057909;28;20594;-77
2023/06/11 02:23:48;;;;;;;7.57;4.10;;;15.00;99.90;;;;;;5060420;28;20681;-77
2023/06/11 02:26:14;;;;;;;7.53;4.30;;;15.00;99.90;;;;;;5070899;28;20515;-77
2023/06/11 02:28:40;;;;;;;6.47;3.43;;;14.90;99.90;;;;;;5064708;28;20182;-77
2023/06/11 02:31:05;;;;;;;7.40;3.70;;;14.80;99.90;;;;;;5051149;28;20229;-77
2023/06/11 02:33:31;;;;;;;7.53;3.73;;;14.80;99.90;;;;;;5050734;28;20178;-77
2023/06/11 02:35:57;;;;;;;6.50;4.00;;;14.80;99.90;;;;;;5064198;28;20644;-77
2023/06/11 02:38:22;;;;;;;6.00;3.63;;;14.70;99.90;;;;;;5071369;28;20184;-77
2023/06/11 02:40:48;;;;;;;7.80;4.20;;;14.70;99.90;;;;;;5057882;28;20182;-77
2023/06/11 02:43:14;;;;;;;6.27;3.80;;;14.60;99.90;;;;;;5064965;28;20523;-77
2023/06/11 02:45:40;;;;;;;5.70;3.40;;;14.60;99.90;;;;;;5071674;28;20189;-77
2023/06/11 02:48:05;;;;;;;10.47;4.70;;;14.60;99.90;;;;;;5071783;28;20251;-77
2023/06/11 02:50:31;;;;;;;7.20;3.27;;;14.50;99.90;;;;;;5071615;28;20705;-77
2023/06/11 02:52:56;;;;;;;6.67;3.93;;;14.50;99.90;;;;;;5057897;28;20673;-77
2023/06/11 02:55:22;;;;;;;4.33;2.90;;;14.40;99.90;;;;;;5071455;28;20177;-77
2023/06/11 02:57:48;;;;;;;5.00;3.30;;;14.40;99.90;;;;;;5057853;28;20645;-77
2023/06/11 03:00:13;;;;;;;5.43;3.23;;;14.40;99.90;;;;;;5071477;28;20685;-77
2023/06/11 03:02:39;;;;;;;5.87;3.77;;;14.30;99.90;;;;;;5064845;28;20224;-77
2023/06/11 03:05:05;;;;;;;8.17;3.57;;;14.30;99.90;;;;;;5063967;28;20189;-77
2023/06/11 03:07:31;;;;;;;9.07;4.40;;;14.30;99.90;;;;;;5061021;28;20185;-77
2023/06/11 03:09:57;;;;;;;6.83;3.80;;;14.20;99.90;;;;;;5075102;28;20455;-77
2023/06/11 03:12:22;;;;;;;9.30;3.97;;;14.20;99.90;;;;;;5074688;28;20515;-76
2023/06/11 03:14:48;;;;;;;6.43;4.10;;;14.10;99.90;;;;;;5079775;28;20215;-77
2023/06/11 03:17:13;;;;;;;7.50;4.20;;;14.10;99.90;;;;;;5074487;28;20260;-76
2023/06/11 03:19:39;;;;;;;6.53;3.97;;;14.10;99.90;;;;;;5074837;28;20238;-77
2023/06/11 03:22:05;;;;;;;7.00;3.87;;;14.10;99.90;;;;;;5074255;28;20185;-77
2023/06/11 03:24:30;;;;;;;8.50;4.10;;;14.00;99.90;;;;;;5074547;28;20177;-77
2023/06/11 03:26:56;;;;;;;5.27;3.47;;;14.00;99.90;;;;;;5068717;28;20256;-77
2023/06/11 03:29:21;;;;;;;9.53;4.93;;;14.00;99.90;;;;;;5066827;28;20181;-77
2023/06/11 03:31:47;;;;;;;9.27;4.60;;;14.00;99.90;;;;;;5068732;28;20681;-77
2023/06/11 03:34:13;;;;;;;5.63;3.47;;;13.90;99.90;;;;;;5054702;28;20178;-77
2023/06/11 03:36:38;;;;;;;8.90;4.50;;;14.00;99.90;;;;;;5073523;28;20250;-77
2023/06/11 03:39:04;;;;;;;7.83;4.03;;;13.90;99.90;;;;;;5074536;28;20185;-77
2023/06/11 03:41:30;;;;;;;9.97;4.40;;;13.90;99.90;;;;;;5073834;28;20196;-77
2023/06/11 03:43:55;;;;;;;5.50;3.57;;;13.90;99.90;;;;;;5068627;28;20178;-77
2023/06/11 03:46:22;;;;;;;8.00;5.07;;;14.00;99.90;;;;;;5074303;28;20641;-76
2023/06/11 03:48:48;;;;;;;7.53;4.50;;;14.00;99.90;;;;;;5074255;28;20634;-77
2023/06/11 03:51:14;;;;;;;10.87;3.97;;;14.00;99.90;;;;;;5060875;28;20549;-77
2023/06/11 03:53:40;;;;;;;6.87;4.20;;;14.00;99.90;;;;;;5073904;28;20264;-77
2023/06/11 03:56:06;;;;;;;4.97;3.20;;;13.90;99.90;;;;;;5073817;28;20545;-77
2023/06/11 03:58:31;;;;;;;7.43;3.80;;;14.00;99.90;;;;;;5077881;28;20189;-77
2023/06/11 04:00:57;;;;;;;5.90;3.40;;;14.00;99.90;;;;;;5084004;28;20227;-77
2023/06/11 04:03:22;;;;;;;8.03;4.70;;;14.00;99.90;;;;;;5074108;28;20216;-77
2023/06/11 04:05:48;;;;;;;7.27;4.40;;;14.00;99.90;;;;;;5074213;28;20517;-77
2023/06/11 04:08:13;;;;;;;5.13;3.53;;;14.00;99.90;;;;;;5062613;28;20205;-77
2023/06/11 04:10:39;;;;;;;5.57;2.83;;;14.10;99.90;;;;;;5071891;28;21034;-77
2023/06/11 04:13:05;;;;;;;6.73;4.07;;;14.10;99.90;;;;;;5073349;28;20173;-77
2023/06/11 04:15:31;;;;;;;6.30;3.93;;;14.10;99.90;;;;;;5073750;28;20201;-77
2023/06/11 04:17:57;;;;;;;5.70;3.67;;;14.10;99.90;;;;;;5062152;28;20182;-77
2023/06/11 04:20:22;;;;;;;6.60;4.07;;;14.10;99.90;;;;;;5054040;28;20431;-77
2023/06/11 04:22:48;;;;;;;7.53;4.00;;;14.20;99.90;;;;;;5064476;28;20226;-77
2023/06/11 04:25:16;;;;;;;6.67;4.70;;;14.30;99.90;;;;;;5060517;28;20698;-77
2023/06/11 04:27:43;;;;;;;9.90;5.73;;;14.30;99.90;;;;;;5073643;28;20181;-77
2023/06/11 04:30:09;;;;;;;9.20;4.10;;;14.40;99.90;;;;;;5073312;28;20515;-77
2023/06/11 04:32:36;;;;;;;6.43;4.00;;;14.50;99.90;;;;;;5073003;28;20447;-76
2023/06/11 04:35:03;;;;;;;8.33;4.90;;;14.60;99.90;;;;;;5073410;28;20802;-76
2023/06/11 04:37:30;;;;;;;7.93;5.30;;;14.70;99.90;;;;;;5062013;28;20443;-76
2023/06/11 04:40:08;;;;;;;10.10;5.27;;;14.80;99.90;;;;;;5071614;28;20422;-76
2023/06/11 04:42:35;;;;;;;10.83;5.53;;;14.90;99.90;;;;;;5072921;28;20415;-76
2023/06/11 04:45:02;;;;;;;8.50;4.40;;;15.00;99.90;;;;;;5072874;28;20495;-76
2023/06/11 04:47:29;;;;;;;7.83;4.33;;;15.10;99.90;;;;;;5071718;28;20443;-76
2023/06/11 04:50:02;;;;;;;7.50;4.53;;;15.20;99.90;;;;;;5068642;28;20438;-76
2023/06/11 04:52:31;;;;;;;8.10;5.10;;;15.20;99.90;;;;;;5070748;28;20449;-76
2023/06/11 04:54:57;;;;;;;8.20;5.07;;;15.30;99.90;;;;;;5062073;28;20422;-76
2023/06/11 04:57:23;;;;;;;6.10;3.90;;;15.40;99.90;;;;;;5070354;28;20415;-77
2023/06/11 04:59:50;;;;;;;8.40;4.90;;;15.40;99.90;;;;;;5062369;28;20256;-77
2023/06/11 05:02:17;;;;;;;10.90;5.13;;;15.50;99.90;;;;;;5072634;28;20950;-77
2023/06/11 05:04:42;;;;;;;6.40;4.63;;;15.60;99.90;;;;;;5072959;28;20407;-77
2023/06/11 05:07:08;;;;;;;6.70;3.73;;;15.60;99.90;;;;;;5070447;28;20419;-77
2023/06/11 05:09:33;;;;;;;7.20;4.90;;;15.70;99.90;;;;;;5053009;28;20261;-77
2023/06/11 05:11:59;;;;;;;7.60;4.80;;;15.80;99.90;;;;;;5068497;28;20217;-77
2023/06/11 05:14:25;;;;;;;6.97;4.43;;;15.90;99.90;;;;;;5072249;28;20556;-77
2023/06/11 05:16:50;;;;;;;8.63;4.70;;;16.00;99.90;;;;;;5071563;28;20184;-77
2023/06/11 05:19:16;;;;;;;11.40;4.10;;;16.00;99.90;;;;;;5072726;28;20209;-77
2023/06/11 05:21:42;;;;;;;6.13;4.10;;;16.20;99.90;;;;;;5072350;28;20203;-77
2023/06/11 05:24:08;;;;;;;7.30;4.20;;;16.20;99.90;;;;;;5072324;28;20215;-77
2023/06/11 05:26:37;;;;;;;8.90;4.70;;;16.30;99.90;;;;;;5072819;28;20728;-77
2023/06/11 05:29:03;;;;;;;7.27;4.20;;;16.40;99.90;;;;;;5062797;28;20185;-77
2023/06/11 05:31:29;;;;;;;11.10;5.83;;;16.50;99.90;;;;;;5064891;28;20959;-77
2023/06/11 05:33:55;;;;;;;9.33;4.10;;;16.60;99.90;;;;;;5062291;28;20446;-76
2023/06/11 05:36:22;;;;;;;6.33;4.40;;;16.70;99.90;;;;;;5072732;28;20733;-76
2023/06/11 05:38:47;;;;;;;8.50;4.80;;;16.80;99.90;;;;;;5072112;28;20416;-75
2023/06/11 05:41:13;;;;;;;6.00;3.30;;;16.90;99.90;;;;;;5071697;28;20537;-74
2023/06/11 05:43:39;;;;;;;13.23;4.53;;;16.90;99.90;;;;;;5071689;28;20177;-75
2023/06/11 05:46:05;;;;;;;7.33;3.73;;;17.10;99.90;;;;;;5071990;28;20560;-75
2023/06/11 05:48:31;;;;;;;5.07;2.80;;;17.20;99.90;;;;;;5072296;28;20173;-75
2023/06/11 05:50:57;;;;;;;5.27;3.57;;;17.30;99.90;;;;;;5072022;28;20463;-75
2023/06/11 05:53:22;;;;;;;6.90;3.53;;;17.40;99.90;;;;;;5071994;28;20260;-75
2023/06/11 05:55:48;;;;;;;7.80;3.83;;;17.50;99.90;;;;;;5072035;28;20523;-75
2023/06/11 05:58:14;;;;;;;5.30;3.10;;;17.50;99.90;;;;;;5062461;28;20235;-75
2023/06/11 06:00:42;;;;;;;5.87;3.63;;;17.70;99.90;;;;;;5055029;28;20539;-75
2023/06/11 06:03:08;;;;;;;5.03;3.47;;;17.70;99.90;;;;;;5071961;28;20857;-75
2023/06/11 06:05:34;;;;;;;8.30;3.60;;;17.70;99.90;;;;;;5068054;28;20507;-75
2023/06/11 06:07:59;;;;;;;7.20;4.00;;;17.80;99.90;;;;;;5063112;28;20197;-75
2023/06/11 06:10:25;;;;;;;5.23;3.10;;;17.80;99.90;;;;;;5058533;28;20204;-75
2023/06/11 06:12:51;;;;;;;7.00;4.07;;;17.90;99.90;;;;;;5061549;28;20173;-75
2023/06/11 06:15:17;;;;;;;6.10;3.77;;;18.00;99.90;;;;;;5068839;28;20185;-75
2023/06/11 06:17:42;;;;;;;4.37;3.00;;;18.00;99.90;;;;;;5073458;28;20218;-75
2023/06/11 06:20:10;;;;;;;7.33;3.43;;;18.10;99.90;;;;;;5071387;28;20222;-74
2023/06/11 06:22:37;;;;;;;5.33;2.80;;;18.20;99.90;;;;;;5072190;28;20188;-76
2023/06/11 06:25:03;;;;;;;4.37;2.63;;;18.40;99.90;;;;;;5071941;28;20536;-75
2023/06/11 06:27:30;;;;;;;14.13;4.10;;;18.50;99.90;;;;;;5071852;28;20510;-76
2023/06/11 06:29:56;;;;;;;8.10;4.03;;;18.60;99.90;;;;;;5071544;28;20739;-75
2023/06/11 06:32:21;;;;;;;4.90;3.10;;;18.60;99.90;;;;;;5071169;28;20507;-75
2023/06/11 06:34:47;;;;;;;3.77;2.60;;;18.70;99.90;;;;;;5071523;28;20173;-75
2023/06/11 06:37:12;;;;;;;5.97;3.40;;;18.90;99.90;;;;;;5060945;28;20259;-73
2023/06/11 06:39:38;;;;;;;7.53;3.47;;;18.90;99.90;;;;;;5056897;28;20284;-73
2023/06/11 06:42:04;;;;;;;6.70;3.97;;;18.90;99.90;;;;;;5071320;28;20193;-72
2023/06/11 06:44:30;;;;;;;4.53;3.03;;;19.00;99.90;;;;;;5071615;28;20708;-72
2023/06/11 06:46:55;;;;;;;5.40;3.43;;;19.10;99.90;;;;;;5068154;28;20505;-73
2023/06/11 06:49:21;;;;;;;6.47;3.57;;;19.20;99.90;;;;;;5071220;28;20343;-72
2023/06/11 06:51:47;;;;;;;3.60;2.47;;;19.30;99.90;;;;;;5067653;28;20252;-72
2023/06/11 06:54:14;;;;;;;14.80;3.40;;;19.40;99.90;;;;;;5064559;28;20838;-73
2023/06/11 06:56:40;;;;;;;6.70;3.90;;;19.50;99.90;;;;;;5054972;28;20201;-73
2023/06/11 06:59:06;;;;;;;4.80;2.83;;;19.60;99.90;;;;;;5071270;28;20487;-73
2023/06/11 07:01:32;;;;;;;8.20;3.93;;;19.70;99.90;;;;;;5070663;28;20185;-73
2023/06/11 07:03:57;;;;;;;7.13;3.70;;;19.70;99.90;;;;;;5067761;28;20487;-73
2023/06/11 07:06:25;;;;;;;6.33;3.10;;;19.90;99.90;;;;;;5051289;28;20190;-72
2023/06/11 07:08:51;;;;;;;3.57;2.40;;;20.00;99.90;;;;;;5051294;28;20186;-72
2023/06/11 07:11:17;;;;;;;8.03;2.60;;;20.20;99.90;;;;;;5051222;28;20781;-73
2023/06/11 07:13:43;;;;;;;5.43;3.10;;;20.30;99.90;;;;;;5067691;28;20423;-73
2023/06/11 07:16:08;;;;;;;5.43;3.20;;;20.40;99.90;;;;;;5071042;28;20584;-73
2023/06/11 07:18:34;;;;;;;4.53;3.00;;;20.60;99.90;;;;;;5071311;28;20177;-73
2023/06/11 07:21:00;;;;;;;4.30;2.83;;;20.80;99.90;;;;;;5071299;28;20193;-73
2023/06/11 07:23:25;;;;;;;5.40;2.50;;;20.80;99.90;;;;;;5069902;28;20220;-73
2023/06/11 07:25:51;;;;;;;4.57;3.10;;;21.00;99.90;;;;;;5069739;28;20192;-73
2023/06/11 07:28:17;;;;;;;5.17;2.47;;;21.00;99.90;;;;;;5054577;28;20186;-73
2023/06/11 07:30:43;;;;;;;3.63;2.20;;;21.20;99.90;;;;;;5052260;28;20280;-73
2023/06/11 07:33:08;;;;;;;4.63;3.00;;;21.40;99.30;;;;;;5068852;28;20188;-74
2023/06/11 07:35:34;;;;;;;4.97;3.10;;;21.60;99.10;;;;;;5070642;28;20174;-74
2023/06/11 07:38:00;;;;;;;4.43;2.67;;;22.10;98.70;;;;;;5068163;28;20294;-74
2023/06/11 07:40:25;;;;;;;5.77;2.50;;;22.60;97.90;;;;;;5069737;28;20206;-74
2023/06/11 07:42:51;;;;;;;4.37;2.60;;;23.50;96.40;;;;;;5070386;28;20187;-74
2023/06/11 07:45:17;;;;;;;4.17;2.50;;;24.20;94.30;;;;;;5070460;28;20267;-74
2023/06/11 07:47:42;;;;;;;4.30;2.70;;;24.90;93.50;;;;;;5070460;28;20181;-75
2023/06/11 07:50:10;;;;;;;4.57;2.43;;;25.00;92.50;;;;;;5060889;28;20216;-75
2023/06/11 07:52:36;;;;;;;4.03;2.63;;;24.80;92.20;;;;;;5067038;28;20187;-75
2023/06/11 07:55:02;;;;;;;8.15;3.25;;;26.00;91.00;;;;;;5069692;28;20506;-74
2023/06/11 07:57:27;;;;;;;4.57;2.58;;;26.20;88.30;;;;;;5070890;28;20181;-75
2023/06/11 07:59:53;;;;;;;6.13;2.80;;;25.60;87.80;;;;;;5064248;28;20634;-75
2023/06/11 08:02:19;;;;;;;4.07;2.80;;;26.40;86.40;;;;;;5071377;28;20526;-77
2023/06/11 08:04:45;;;;;;;3.30;2.20;;;26.70;86.20;;;;;;5075052;28;20196;-75
2023/06/11 08:07:12;;;;;;;5.65;3.08;;;26.20;83.50;;;;;;5071594;28;20219;-76
2023/06/11 08:09:38;;;;;;;4.28;2.90;;;25.70;85.10;;;;;;5075772;28;20212;-76
2023/06/11 08:12:05;;;;;;;3.35;2.33;;;25.70;85.50;;;;;;5073539;28;20287;-75
2023/06/11 08:14:35;;;;;;;5.57;3.03;;;26.60;85.00;;;;;;5079835;28;20175;-77
2023/06/11 08:17:01;;;;;;;2.80;2.13;;;27.20;80.40;;;;;;5074317;28;20512;-74
2023/06/11 08:19:27;;;;;;;5.53;2.95;;;27.10;80.50;;;;;;5074494;28;20220;-77
2023/06/11 08:21:56;;;;;;;5.38;2.20;;;27.00;82.20;;;;;;5069798;28;20209;-77
2023/06/11 08:24:22;;;;;;;4.03;2.67;;;26.90;81.40;;;;;;5065245;28;20264;-77
2023/06/11 08:26:48;;;;;;;4.75;2.30;;;27.20;80.30;;;;;;5072454;28;20629;-78
2023/06/11 08:29:15;;;;;;;3.75;2.33;;;27.00;79.10;;;;;;5064926;28;20177;-77
2023/06/11 08:31:41;;;;;;;14.63;3.17;;;27.10;79.40;;;;;;5069547;28;20215;-77
2023/06/11 08:34:06;;;;;;;3.80;2.47;;;27.10;77.90;;;;;;5070866;28;20233;-75
2023/06/11 08:36:32;;;;;;;6.00;2.60;;;27.00;78.30;;;;;;5073145;28;20188;-75
2023/06/11 08:38:57;;;;;;;4.53;2.95;;;26.90;77.20;;;;;;5074615;28;20198;-79
2023/06/11 08:41:23;;;;;;;3.33;2.30;;;26.70;76.60;;;;;;5069210;28;20656;-78
2023/06/11 08:43:49;;;;;;;3.65;2.60;;;26.80;76.30;;;;;;5065346;28;20193;-76
2023/06/11 08:46:15;;;;;;;3.55;2.20;;;26.40;76.90;;;;;;5074049;28;20181;-77
2023/06/11 08:48:43;;;;;;;3.40;2.22;;;26.90;78.10;;;;;;5073460;28;20245;-75
2023/06/11 08:51:12;;;;;;;3.58;2.55;;;27.00;75.20;;;;;;5073186;28;20312;-77
2023/06/11 08:53:39;;;;;;;2.97;2.47;;;27.60;72.00;;;;;;5073031;28;20188;-77
2023/06/11 08:56:06;;;;;;;6.20;2.90;;;27.70;72.60;;;;;;5071147;28;20187;-78
2023/06/11 08:58:34;;;;;;;3.28;2.08;;;27.50;72.10;;;;;;5072483;28;20214;-78
2023/06/11 09:01:10;;;;;;;3.97;2.55;;;27.50;70.80;;;;;;5067320;28;20193;-79
2023/06/11 09:03:36;;;;;;;4.65;2.72;;;27.80;69.30;;;;;;5053500;28;20533;-77
2023/06/11 09:06:02;;;;;;;5.15;2.83;;;27.70;70.40;;;;;;5061860;28;20255;-75
2023/06/11 09:08:28;;;;;;;4.00;2.38;;;27.20;71.20;;;;;;5060511;28;20181;-78
2023/06/11 09:10:54;;;;;;;3.95;1.95;;;27.40;70.40;;;;;;5074257;28;20196;-74
2023/06/11 09:13:24;;;;;;;5.10;2.80;;;27.10;71.10;;;;;;5073027;28;20621;-76
2023/06/11 09:15:58;;;;;;;4.60;2.13;;;26.90;72.90;;;;;;5073362;28;20176;-77
2023/06/11 09:18:27;;;;;;;2.97;1.70;;;27.20;69.60;;;;;;5073308;28;20527;-77
2023/06/11 09:20:54;;;;;;;4.93;2.92;;;27.00;70.50;;;;;;5069298;28;20617;-77
2023/06/11 09:23:25;;;;;;;8.48;2.83;;;27.20;69.80;;;;;;5071936;28;20199;-78
2023/06/11 09:25:50;;;;;;;4.38;2.85;;;27.50;70.50;;;;;;5070703;28;20761;-77
2023/06/11 09:28:16;;;;;;;4.25;2.75;;;27.50;69.10;;;;;;5067719;28;20259;-76
2023/06/11 09:30:51;;;;;;;5.20;2.15;;;27.70;69.60;;;;;;5070749;28;20302;-75
2023/06/11 09:33:17;;;;;;;7.70;2.58;;;27.60;70.90;;;;;;5068016;28;20223;-75
2023/06/11 09:35:46;;;;;;;2.88;1.90;;;27.60;69.70;;;;;;5075843;28;20196;-75
2023/06/11 09:38:19;;;;;;;7.68;2.47;;;27.70;69.30;;;;;;5069625;28;20215;-73
2023/06/11 09:40:46;;;;;;;5.53;2.83;;;28.00;69.80;;;;;;5066239;28;20177;-72
2023/06/11 09:43:12;;;;;;;7.10;3.45;;;27.30;66.50;;;;;;5068117;28;20850;-73
2023/06/11 09:45:39;;;;;;;3.72;2.08;;;26.50;68.00;;;;;;5071695;28;20212;-73
2023/06/11 09:48:05;;;;;;;5.47;2.40;;;27.00;69.30;;;;;;5072336;28;20173;-74
2023/06/11 09:50:33;;;;;;;2.88;2.05;;;27.30;65.60;;;;;;5069535;28;20224;-72
2023/06/11 09:53:02;;;;;;;4.72;2.55;;;27.30;63.80;;;;;;5070604;28;20195;-74
2023/06/11 09:55:30;;;;;;;4.55;2.53;;;27.40;64.70;;;;;;5058529;28;20173;-71
2023/06/11 09:57:56;;;;;;;3.35;2.00;;;27.20;64.90;;;;;;5059716;28;20175;-74
2023/06/11 10:00:22;;;;;;;3.45;2.50;;;27.00;65.90;;;;;;5072305;28;20263;-73
2023/06/11 10:02:47;;;;;;;4.68;2.00;;;26.90;65.30;;;;;;5071795;28;20234;-73
2023/06/11 10:05:14;;;;;;;4.32;2.47;;;27.20;65.90;;;;;;5058639;28;20185;-73
2023/06/11 10:07:45;;;;;;;6.38;3.00;;;27.50;64.80;;;;;;5052530;28;20188;-73
2023/06/11 10:10:13;;;;;;;3.53;2.28;;;27.10;62.50;;;;;;5052496;28;20517;-73
2023/06/11 10:12:39;;;;;;;3.15;1.90;;;26.80;64.00;;;;;;5071503;28;20545;-73
2023/06/11 10:15:10;;;;;;;3.78;2.10;;;27.20;65.40;;;;;;5072512;28;20326;-73
2023/06/11 10:17:35;;;;;;;7.20;2.45;;;27.00;64.50;;;;;;5071144;28;20173;-72
2023/06/11 10:20:01;;;;;;;7.43;2.90;;;27.10;63.20;;;;;;5067561;28;20183;-70
2023/06/11 10:22:34;;;;;;;4.47;2.67;;;26.90;65.40;;;;;;5063883;28;20203;-73
2023/06/11 10:25:03;;;;;;;5.63;2.45;;;26.80;64.50;;;;;;5067466;28;20177;-73
2023/06/11 10:27:41;;;;;;;5.55;2.15;;;26.50;63.40;;;;;;5071657;28;20214;-74
2023/06/11 10:30:08;;;;;;;4.78;2.42;;;26.60;65.60;;;;;;5067212;28;20180;-72
2023/06/11 10:32:33;;;;;;;2.87;2.23;;;26.60;65.00;;;;;;5065644;28;20192;-73
2023/06/11 10:35:03;;;;;;;5.10;2.53;;;26.20;63.60;;;;;;5068256;28;20177;-73
2023/06/11 10:37:30;;;;;;;4.30;2.50;;;26.60;64.40;;;;;;5069391;28;20275;-73
2023/06/11 10:39:56;;;;;;;7.17;3.07;;;26.20;65.20;;;;;;5070994;28;20165;-75
2023/06/11 10:42:36;;;;;;;6.00;2.60;;;25.90;63.40;;;;;;5070899;28;20218;-75
2023/06/11 10:45:07;;;;;;;2.87;1.73;;;26.00;65.60;;;;;;5066286;28;20512;-74
2023/06/11 10:47:44;;;;;;;4.30;2.47;;;25.90;63.60;;;;;;5066327;28;20403;-73
2023/06/11 10:50:12;;;;;;;2.63;1.67;;;26.20;63.50;;;;;;5065655;28;20513;-76
2023/06/11 10:53:08;;;;;;;8.70;2.50;;;26.50;63.50;;;;;;5071189;28;20426;-76
2023/06/11 10:55:35;;;;;;;9.30;2.20;;;26.50;60.90;;;;;;5068385;28;20791;-74
2023/06/11 10:58:01;;;;;;;14.60;2.10;;;26.50;59.00;;;;;;5072607;28;20419;-74
2023/06/11 11:00:32;;;;;;;4.50;2.70;;;26.50;61.00;;;;;;5070487;28;20441;-74
2023/06/11 11:03:03;;;;;;;3.63;1.93;;;26.50;60.70;;;;;;5071530;28;20425;-74
2023/06/11 11:05:29;;;;;;;4.33;2.60;;;26.50;59.70;;;;;;5072041;28;20191;-75
2023/06/11 11:07:55;;;;;;;7.90;2.40;;;26.40;61.50;;;;;;5062578;28;20423;-74
2023/06/11 11:10:27;;;;;;;4.10;2.43;;;26.20;58.50;;;;;;5054738;28;21631;-74
2023/06/11 11:12:54;;;;;;;6.10;2.60;;;26.40;59.10;;;;;;5061244;28;20278;-74
2023/06/11 11:15:20;;;;;;;3.30;2.03;;;26.80;59.80;;;;;;5071695;28;20813;-72
2023/06/11 11:17:46;;;;;;;9.33;2.93;;;26.20;60.00;;;;;;5068346;28;20421;-73
2023/06/11 11:20:17;;;;;;;6.57;3.10;;;26.30;61.50;;;;;;5066664;28;20172;-72
2023/06/11 11:22:48;;;;;;;3.10;2.00;;;26.50;59.90;;;;;;5061036;28;20824;-75
2023/06/11 11:25:15;;;;;;;5.73;2.63;;;26.80;58.80;;;;;;5066232;28;20892;-74
2023/06/11 11:27:43;;;;;;;13.90;4.57;;;26.50;60.50;;;;;;5053660;28;20902;-75
2023/06/11 11:30:09;;;;;;;9.47;2.47;;;26.60;59.90;;;;;;5074828;28;20439;-76
2023/06/11 11:32:35;;;;;;;4.63;3.00;;;26.80;58.80;;;;;;5079749;28;20635;-74
2023/06/11 11:35:03;;;;;;;5.00;2.80;;;27.00;59.10;;;;;;5062142;28;20506;-75
2023/06/11 11:37:29;;;;;;;3.33;2.23;;;27.10;58.30;;;;;;5064348;28;20552;-78
2023/06/11 11:39:56;;;;;;;3.77;1.80;;;26.90;59.60;;;;;;5074815;28;20211;-73
2023/06/11 11:42:24;;;;;;;3.40;2.27;;;26.70;57.90;;;;;;5063753;28;20209;-75
2023/06/11 11:44:53;;;;;;;4.90;2.93;;;26.90;58.20;;;;;;5074069;28;20220;-74
2023/06/11 11:47:21;;;;;;;3.70;2.07;;;27.20;59.50;;;;;;5076759;28;20671;-71
2023/06/11 11:49:56;;;;;;;4.20;2.30;;;27.00;60.30;;;;;;5064125;28;20932;-78
2023/06/11 11:52:23;;;;;;;3.50;2.27;;;27.10;59.70;;;;;;5075915;28;20172;-74
2023/06/11 11:54:49;;;;;;;3.27;2.20;;;27.30;58.60;;;;;;5063872;28;20800;-77
2023/06/11 11:57:21;;;;;;;4.93;2.37;;;27.20;61.60;;;;;;5068829;28;20302;-76
2023/06/11 11:59:51;;;;;;;3.50;2.00;;;27.20;57.60;;;;;;5063044;28;20172;-77
2023/06/11 12:02:17;;;;;;;3.50;2.33;;;27.20;59.40;;;;;;5071012;28;20582;-77
2023/06/11 12:04:46;;;;;;;4.80;2.37;;;26.90;57.70;;;;;;5075320;28;20185;-77
2023/06/11 12:07:15;;;;;;;4.77;2.43;;;27.20;56.60;;;;;;5074734;28;20735;-75
2023/06/11 12:09:41;;;;;;;7.50;2.67;;;27.00;59.10;;;;;;5074489;28;20565;-76
2023/06/11 12:12:08;;;;;;;6.57;2.73;;;27.30;56.50;;;;;;5074051;28;20203;-77
2023/06/11 12:14:37;;;;;;;4.23;2.23;;;27.20;56.60;;;;;;5072211;28;20187;-77
2023/06/11 12:17:04;;;;;;;2.77;1.90;;;27.10;55.70;;;;;;5072185;28;20279;-76
2023/06/11 12:19:31;;;;;;;3.60;2.00;;;27.40;56.50;;;;;;5070161;28;20177;-76
2023/06/11 12:21:57;;;;;;;3.97;2.10;;;27.40;56.40;;;;;;5071699;28;20211;-77
2023/06/11 12:24:23;;;;;;;4.83;2.90;;;27.60;55.00;;;;;;5074537;28;20655;-76
2023/06/11 12:26:51;;;;;;;4.00;2.53;;;27.70;57.10;;;;;;5071558;28;20196;-79
2023/06/11 12:29:19;;;;;;;4.43;2.23;;;27.80;55.80;;;;;;5065187;28;20185;-77
2023/06/11 12:31:46;;;;;;;3.60;2.13;;;27.70;55.90;;;;;;5061219;28;20227;-78
2023/06/11 12:34:15;;;;;;;5.77;2.43;;;28.00;50.50;;;;;;5075185;28;20177;-81
2023/06/11 12:36:44;;;;;;;5.07;2.90;;;27.70;51.00;;;;;;5072744;28;20181;-77
2023/06/11 12:39:10;;;;;;;3.67;1.97;;;27.40;54.30;;;;;;5064420;28;20207;-79
2023/06/11 12:41:36;;;;;;;3.40;2.03;;;27.50;56.20;;;;;;5074651;28;20276;-78
2023/06/11 12:44:05;;;;;;;5.30;2.70;;;27.80;53.40;;;;;;5073408;28;20750;-80